sensor_id;sensor_type;location;lat;lon;timestamp;pressure;altitude;pressure_sealevel;temperature;humidity
62800;BME280;48842;51.046;13.796;2023-03-14T00:02:07;98322.47;;;13.66;70.13
62800;BME280;48842;51.046;13.796;2023-03-14T00:04:32;98333.91;;;13.65;70.52
62800;BME280;48842;51.046;13.796;2023-03-14T00:06:57;98320.03;;;13.61;70.50
62800;BME280;48842;51.046;13.796;2023-03-14T00:09:24;98304.31;;;13.60;70.31
62800;BME280;48842;51.046;13.796;2023-03-14T00:11:52;98295.56;;;13.59;70.34
62800;BME280;48842;51.046;13.796;2023-03-14T00:14:17;98291.22;;;13.58;70.40
62800;BME280;48842;51.046;13.796;2023-03-14T00:16:45;98265.91;;;13.56;70.56
62800;BME280;48842;51.046;13.796;2023-03-14T00:19:11;98253.66;;;13.55;70.72
62800;BME280;48842;51.046;13.796;2023-03-14T00:21:38;98247.63;;;13.53;70.59
62800;BME280;48842;51.046;13.796;2023-03-14T00:24:04;98238.88;;;13.52;70.34
62800;BME280;48842;51.046;13.796;2023-03-14T00:26:29;98238.06;;;13.50;70.64
62800;BME280;48842;51.046;13.796;2023-03-14T00:28:54;98240.78;;;13.49;70.74
62800;BME280;48842;51.046;13.796;2023-03-14T00:31:19;98247.88;;;13.47;70.64
62800;BME280;48842;51.046;13.796;2023-03-14T00:33:45;98254.06;;;13.46;70.47
62800;BME280;48842;51.046;13.796;2023-03-14T00:36:13;98247.13;;;13.43;70.53
62800;BME280;48842;51.046;13.796;2023-03-14T00:38:40;98245.53;;;13.40;70.90
62800;BME280;48842;51.046;13.796;2023-03-14T00:41:15;98267.47;;;13.39;70.41
62800;BME280;48842;51.046;13.796;2023-03-14T00:43:40;98278.97;;;13.37;70.38
62800;BME280;48842;51.046;13.796;2023-03-14T00:46:06;98293.88;;;13.36;70.42
62800;BME280;48842;51.046;13.796;2023-03-14T00:48:32;98273.69;;;13.37;70.59
62800;BME280;48842;51.046;13.796;2023-03-14T00:50:57;98265.88;;;13.35;70.79
62800;BME280;48842;51.046;13.796;2023-03-14T00:53:23;98286.09;;;13.33;70.89
62800;BME280;48842;51.046;13.796;2023-03-14T00:55:48;98284.38;;;13.32;70.97
62800;BME280;48842;51.046;13.796;2023-03-14T00:58:15;98283.47;;;13.33;71.00
62800;BME280;48842;51.046;13.796;2023-03-14T01:00:42;98292.25;;;13.32;70.71
62800;BME280;48842;51.046;13.796;2023-03-14T01:03:08;98292.25;;;13.32;70.74
62800;BME280;48842;51.046;13.796;2023-03-14T01:05:33;98300.16;;;13.32;70.95
62800;BME280;48842;51.046;13.796;2023-03-14T01:07:59;98307.19;;;13.32;70.81
62800;BME280;48842;51.046;13.796;2023-03-14T01:10:24;98302.78;;;13.32;70.65
62800;BME280;48842;51.046;13.796;2023-03-14T01:12:49;98302.78;;;13.32;70.82
62800;BME280;48842;51.046;13.796;2023-03-14T01:15:15;98295.75;;;13.33;70.32
62800;BME280;48842;51.046;13.796;2023-03-14T01:17:40;98296.69;;;13.32;70.79
62800;BME280;48842;51.046;13.796;2023-03-14T01:20:10;98290.53;;;13.31;70.83
62800;BME280;48842;51.046;13.796;2023-03-14T01:22:36;98267.00;;;13.28;70.57
62800;BME280;48842;51.046;13.796;2023-03-14T01:25:04;98270.47;;;13.28;70.19
62800;BME280;48842;51.046;13.796;2023-03-14T01:27:29;98266.94;;;13.30;70.45
62800;BME280;48842;51.046;13.796;2023-03-14T01:29:54;98276.63;;;13.29;70.39
62800;BME280;48842;51.046;13.796;2023-03-14T01:32:19;98270.41;;;13.30;70.15
62800;BME280;48842;51.046;13.796;2023-03-14T01:34:45;98274.69;;;13.33;70.27
62800;BME280;48842;51.046;13.796;2023-03-14T01:37:10;98287.00;;;13.32;69.84
62800;BME280;48842;51.046;13.796;2023-03-14T01:39:37;98288.72;;;13.33;70.08
62800;BME280;48842;51.046;13.796;2023-03-14T01:42:02;98286.09;;;13.33;70.18
62800;BME280;48842;51.046;13.796;2023-03-14T01:44:27;98293.06;;;13.34;70.08
62800;BME280;48842;51.046;13.796;2023-03-14T01:46:52;98279.94;;;13.34;70.08
62800;BME280;48842;51.046;13.796;2023-03-14T01:49:31;98282.56;;;13.34;70.10
62800;BME280;48842;51.046;13.796;2023-03-14T01:52:10;98275.59;;;13.33;70.16
62800;BME280;48842;51.046;13.796;2023-03-14T01:54:39;98259.00;;;13.31;70.06
62800;BME280;48842;51.046;13.796;2023-03-14T01:57:19;98256.31;;;13.33;70.17
62800;BME280;48842;51.046;13.796;2023-03-14T01:59:49;98253.66;;;13.33;69.97
62800;BME280;48842;51.046;13.796;2023-03-14T02:02:17;98259.00;;;13.31;70.50
62800;BME280;48842;51.046;13.796;2023-03-14T02:04:43;98258.09;;;13.32;70.08
62800;BME280;48842;51.046;13.796;2023-03-14T02:07:16;98248.47;;;13.31;69.97
62800;BME280;48842;51.046;13.796;2023-03-14T02:09:43;98253.72;;;13.31;69.92
62800;BME280;48842;51.046;13.796;2023-03-14T02:12:11;98250.25;;;13.31;70.03
62800;BME280;48842;51.046;13.796;2023-03-14T02:14:38;98252.16;;;13.27;70.02
62800;BME280;48842;51.046;13.796;2023-03-14T02:17:05;98240.84;;;13.25;69.98
62800;BME280;48842;51.046;13.796;2023-03-14T02:19:46;98243.59;;;13.22;69.95
62800;BME280;48842;51.046;13.796;2023-03-14T02:22:14;98242.78;;;13.20;69.91
62800;BME280;48842;51.046;13.796;2023-03-14T02:25:04;98248.19;;;13.17;69.94
62800;BME280;48842;51.046;13.796;2023-03-14T02:27:33;98244.78;;;13.15;69.91
62800;BME280;48842;51.046;13.796;2023-03-14T02:30:04;98243.97;;;13.13;69.88
62800;BME280;48842;51.046;13.796;2023-03-14T02:32:32;98253.63;;;13.12;69.71
62800;BME280;48842;51.046;13.796;2023-03-14T02:35:00;98233.50;;;13.11;69.51
62800;BME280;48842;51.046;13.796;2023-03-14T02:37:35;98238.00;;;13.09;69.60
62800;BME280;48842;51.046;13.796;2023-03-14T02:40:02;98233.72;;;13.06;69.88
62800;BME280;48842;51.046;13.796;2023-03-14T02:42:29;98232.13;;;13.02;69.73
62800;BME280;48842;51.046;13.796;2023-03-14T02:47:36;98240.19;;;12.98;69.30
62800;BME280;48842;51.046;13.796;2023-03-14T02:50:29;98249.03;;;12.95;70.20
62800;BME280;48842;51.046;13.796;2023-03-14T02:52:55;98250.03;;;12.92;69.66
62800;BME280;48842;51.046;13.796;2023-03-14T02:55:22;98250.94;;;12.91;69.87
62800;BME280;48842;51.046;13.796;2023-03-14T02:57:47;98244.84;;;12.91;69.95
62800;BME280;48842;51.046;13.796;2023-03-14T03:00:13;98243.13;;;12.90;69.84
62800;BME280;48842;51.046;13.796;2023-03-14T03:02:38;98255.44;;;12.89;69.87
62800;BME280;48842;51.046;13.796;2023-03-14T03:05:04;98244.97;;;12.88;69.84
62800;BME280;48842;51.046;13.796;2023-03-14T03:07:29;98232.63;;;12.90;69.46
62800;BME280;48842;51.046;13.796;2023-03-14T03:09:54;98237.81;;;12.91;69.42
62800;BME280;48842;51.046;13.796;2023-03-14T03:12:19;98223.72;;;12.94;69.20
62800;BME280;48842;51.046;13.796;2023-03-14T03:14:45;98211.34;;;12.96;69.10
62800;BME280;48842;51.046;13.796;2023-03-14T03:17:10;98212.25;;;12.95;69.20
62800;BME280;48842;51.046;13.796;2023-03-14T03:19:35;98211.41;;;12.95;69.04
62800;BME280;48842;51.046;13.796;2023-03-14T03:22:00;98210.50;;;12.96;68.89
62800;BME280;48842;51.046;13.796;2023-03-14T03:24:26;98221.84;;;12.96;69.07
62800;BME280;48842;51.046;13.796;2023-03-14T03:26:52;98222.72;;;12.97;68.53
62800;BME280;48842;51.046;13.796;2023-03-14T03:29:17;98214.88;;;12.95;68.55
62800;BME280;48842;51.046;13.796;2023-03-14T03:31:42;98228.03;;;12.95;68.55
62800;BME280;48842;51.046;13.796;2023-03-14T03:34:11;98226.34;;;12.94;68.53
62800;BME280;48842;51.046;13.796;2023-03-14T03:36:36;98233.34;;;12.93;68.20
62800;BME280;48842;51.046;13.796;2023-03-14T03:39:01;98231.59;;;12.94;67.62
62800;BME280;48842;51.046;13.796;2023-03-14T03:41:26;98239.34;;;12.97;66.85
62800;BME280;48842;51.046;13.796;2023-03-14T03:43:52;98230.28;;;13.04;66.53
62800;BME280;48842;51.046;13.796;2023-03-14T03:46:19;98242.22;;;13.13;65.99
62800;BME280;48842;51.046;13.796;2023-03-14T03:48:44;98238.59;;;13.16;64.95
62800;BME280;48842;51.046;13.796;2023-03-14T03:51:15;98231.25;;;13.24;64.01
62800;BME280;48842;51.046;13.796;2023-03-14T03:53:42;98228.31;;;13.32;64.39
62800;BME280;48842;51.046;13.796;2023-03-14T03:56:08;98221.94;;;13.37;63.91
62800;BME280;48842;51.046;13.796;2023-03-14T03:58:34;98228.94;;;13.38;64.29
62800;BME280;48842;51.046;13.796;2023-03-14T04:00:59;98226.31;;;13.38;63.85
62800;BME280;48842;51.046;13.796;2023-03-14T04:03:24;98215.84;;;13.37;64.34
62800;BME280;48842;51.046;13.796;2023-03-14T04:06:05;98211.56;;;13.34;64.16
62800;BME280;48842;51.046;13.796;2023-03-14T04:08:30;98204.69;;;13.30;64.32
62800;BME280;48842;51.046;13.796;2023-03-14T04:10:57;98208.41;;;13.26;64.54
62800;BME280;48842;51.046;13.796;2023-03-14T04:13:23;98207.66;;;13.22;64.47
62800;BME280;48842;51.046;13.796;2023-03-14T04:15:50;98206.00;;;13.20;64.56
62800;BME280;48842;51.046;13.796;2023-03-14T04:18:15;98213.16;;;13.16;64.55
62800;BME280;48842;51.046;13.796;2023-03-14T04:20:41;98219.28;;;13.17;64.24
62800;BME280;48842;51.046;13.796;2023-03-14T04:23:06;98223.63;;;13.18;64.24
62800;BME280;48842;51.046;13.796;2023-03-14T04:25:31;98211.31;;;13.18;64.16
62800;BME280;48842;51.046;13.796;2023-03-14T04:27:57;98219.13;;;13.20;63.65
62800;BME280;48842;51.046;13.796;2023-03-14T04:30:22;98216.41;;;13.23;63.45
62800;BME280;48842;51.046;13.796;2023-03-14T04:32:47;98222.44;;;13.25;62.28
62800;BME280;48842;51.046;13.796;2023-03-14T04:35:12;98224.03;;;13.29;61.99
62800;BME280;48842;51.046;13.796;2023-03-14T04:37:38;98209.84;;;13.33;62.14
62800;BME280;48842;51.046;13.796;2023-03-14T04:40:03;98211.44;;;13.37;61.73
62800;BME280;48842;51.046;13.796;2023-03-14T04:42:31;98206.09;;;13.39;61.70
62800;BME280;48842;51.046;13.796;2023-03-14T04:44:56;98207.06;;;13.38;60.46
62800;BME280;48842;51.046;13.796;2023-03-14T04:47:21;98207.75;;;13.41;60.20
62800;BME280;48842;51.046;13.796;2023-03-14T04:49:46;98196.13;;;13.47;59.95
62800;BME280;48842;51.046;13.796;2023-03-14T04:52:12;98193.44;;;13.49;60.56
62800;BME280;48842;51.046;13.796;2023-03-14T04:54:37;98193.44;;;13.49;60.34
62800;BME280;48842;51.046;13.796;2023-03-14T04:57:02;98193.44;;;13.49;60.57
62800;BME280;48842;51.046;13.796;2023-03-14T04:59:27;98199.59;;;13.48;59.82
62800;BME280;48842;51.046;13.796;2023-03-14T05:01:53;98189.97;;;13.48;60.18
62800;BME280;48842;51.046;13.796;2023-03-14T05:04:18;98194.41;;;13.46;59.97
62800;BME280;48842;51.046;13.796;2023-03-14T05:06:43;98188.31;;;13.46;60.09
62800;BME280;48842;51.046;13.796;2023-03-14T05:09:09;98178.78;;;13.43;60.08
62800;BME280;48842;51.046;13.796;2023-03-14T05:11:34;98176.28;;;13.40;59.65
62800;BME280;48842;51.046;13.796;2023-03-14T05:13:59;98185.94;;;13.39;59.73
62800;BME280;48842;51.046;13.796;2023-03-14T05:16:25;98172.94;;;13.36;59.17
62800;BME280;48842;51.046;13.796;2023-03-14T05:18:50;98172.81;;;13.39;59.29
62800;BME280;48842;51.046;13.796;2023-03-14T05:21:15;98193.84;;;13.39;58.98
62800;BME280;48842;51.046;13.796;2023-03-14T05:23:40;98199.09;;;13.39;58.87
62800;BME280;48842;51.046;13.796;2023-03-14T05:26:06;98195.59;;;13.39;58.43
62800;BME280;48842;51.046;13.796;2023-03-14T05:28:31;98201.59;;;13.42;58.59
62800;BME280;48842;51.046;13.796;2023-03-14T05:30:56;98201.53;;;13.44;58.88
62800;BME280;48842;51.046;13.796;2023-03-14T05:33:22;98194.53;;;13.43;58.54
62800;BME280;48842;51.046;13.796;2023-03-14T05:35:47;98192.84;;;13.42;58.75
62800;BME280;48842;51.046;13.796;2023-03-14T05:38:12;98180.56;;;13.42;58.24
62800;BME280;48842;51.046;13.796;2023-03-14T05:40:38;98172.81;;;13.39;57.96
62800;BME280;48842;51.046;13.796;2023-03-14T05:43:03;98180.56;;;13.42;58.20
62800;BME280;48842;51.046;13.796;2023-03-14T05:45:28;98170.09;;;13.41;57.82
62800;BME280;48842;51.046;13.796;2023-03-14T05:47:53;98164.72;;;13.44;58.05
62800;BME280;48842;51.046;13.796;2023-03-14T05:50:19;98165.56;;;13.44;57.77
62800;BME280;48842;51.046;13.796;2023-03-14T05:52:44;98164.78;;;13.42;58.00
62800;BME280;48842;51.046;13.796;2023-03-14T05:55:09;98159.44;;;13.44;58.10
62800;BME280;48842;51.046;13.796;2023-03-14T05:57:34;98172.59;;;13.44;57.85
62800;BME280;48842;51.046;13.796;2023-03-14T06:00:00;98167.41;;;13.42;57.99
62800;BME280;48842;51.046;13.796;2023-03-14T06:02:25;98157.72;;;13.43;58.25
62800;BME280;48842;51.046;13.796;2023-03-14T06:04:50;98166.44;;;13.45;58.16
62800;BME280;48842;51.046;13.796;2023-03-14T06:07:15;98164.63;;;13.46;57.74
62800;BME280;48842;51.046;13.796;2023-03-14T06:09:41;98160.16;;;13.48;58.23
62800;BME280;48842;51.046;13.796;2023-03-14T06:12:06;98162.69;;;13.51;57.84
62800;BME280;48842;51.046;13.796;2023-03-14T06:14:31;98164.28;;;13.53;57.82
62800;BME280;48842;51.046;13.796;2023-03-14T06:16:57;98158.97;;;13.55;57.64
62800;BME280;48842;51.046;13.796;2023-03-14T06:19:24;98167.81;;;13.54;57.69
62800;BME280;48842;51.046;13.796;2023-03-14T06:21:49;98169.41;;;13.56;57.69
62800;BME280;48842;51.046;13.796;2023-03-14T06:24:14;98184.22;;;13.59;57.60
62800;BME280;48842;51.046;13.796;2023-03-14T06:26:40;98178.97;;;13.59;57.75
62800;BME280;48842;51.046;13.796;2023-03-14T06:29:05;98191.13;;;13.61;57.49
62800;BME280;48842;51.046;13.796;2023-03-14T06:31:30;98191.06;;;13.63;57.70
62800;BME280;48842;51.046;13.796;2023-03-14T06:33:56;98194.47;;;13.65;57.56
62800;BME280;48842;51.046;13.796;2023-03-14T06:36:21;98201.44;;;13.66;57.84
62800;BME280;48842;51.046;13.796;2023-03-14T06:38:47;98203.16;;;13.67;57.65
62800;BME280;48842;51.046;13.796;2023-03-14T06:41:12;98213.56;;;13.70;57.55
62800;BME280;48842;51.046;13.796;2023-03-14T06:43:37;98211.63;;;13.74;57.47
62800;BME280;48842;51.046;13.796;2023-03-14T06:46:02;98219.47;;;13.75;57.20
62800;BME280;48842;51.046;13.796;2023-03-14T06:48:27;98221.09;;;13.78;57.63
62800;BME280;48842;51.046;13.796;2023-03-14T06:50:53;98210.38;;;13.83;57.37
62800;BME280;48842;51.046;13.796;2023-03-14T06:53:18;98204.94;;;13.87;57.25
62800;BME280;48842;51.046;13.796;2023-03-14T06:55:43;98209.91;;;13.93;57.25
62800;BME280;48842;51.046;13.796;2023-03-14T06:58:10;98222.03;;;13.98;57.08
62800;BME280;48842;51.046;13.796;2023-03-14T07:00:35;98211.34;;;14.01;56.93
62800;BME280;48842;51.046;13.796;2023-03-14T07:03:01;98211.28;;;14.02;56.31
62800;BME280;48842;51.046;13.796;2023-03-14T07:05:26;98214.63;;;14.06;56.15
62800;BME280;48842;51.046;13.796;2023-03-14T07:07:51;98202.19;;;14.09;56.15
62800;BME280;48842;51.046;13.796;2023-03-14T07:10:17;98199.28;;;14.16;56.52
62800;BME280;48842;51.046;13.796;2023-03-14T07:12:42;98198.22;;;14.20;56.57
62800;BME280;48842;51.046;13.796;2023-03-14T07:15:08;98206.94;;;14.20;56.75
62800;BME280;48842;51.046;13.796;2023-03-14T07:17:33;98213.88;;;14.23;56.80
62800;BME280;48842;51.046;13.796;2023-03-14T07:19:58;98210.38;;;14.22;56.85
62800;BME280;48842;51.046;13.796;2023-03-14T07:22:24;98219.91;;;14.25;56.79
62800;BME280;48842;51.046;13.796;2023-03-14T07:24:49;98227.72;;;14.26;56.58
62800;BME280;48842;51.046;13.796;2023-03-14T07:27:15;98226.75;;;14.29;56.67
62800;BME280;48842;51.046;13.796;2023-03-14T07:29:40;98219.56;;;14.32;56.67
62800;BME280;48842;51.046;13.796;2023-03-14T07:32:05;98228.31;;;14.33;56.75
62800;BME280;48842;51.046;13.796;2023-03-14T07:34:30;98223.06;;;14.33;56.85
62800;BME280;48842;51.046;13.796;2023-03-14T07:36:55;98226.59;;;14.32;57.03
62800;BME280;48842;51.046;13.796;2023-03-14T07:39:21;98217.00;;;14.31;57.02
62800;BME280;48842;51.046;13.796;2023-03-14T07:41:46;98216.94;;;14.32;57.20
62800;BME280;48842;51.046;13.796;2023-03-14T07:44:11;98212.53;;;14.33;57.29
62800;BME280;48842;51.046;13.796;2023-03-14T07:46:36;98212.53;;;14.33;57.06
62800;BME280;48842;51.046;13.796;2023-03-14T07:49:02;98218.63;;;14.34;57.29
62800;BME280;48842;51.046;13.796;2023-03-14T07:51:27;98219.50;;;14.34;56.96
62800;BME280;48842;51.046;13.796;2023-03-14T07:53:52;98222.75;;;14.39;56.92
62800;BME280;48842;51.046;13.796;2023-03-14T07:56:17;98220.94;;;14.41;56.69
62800;BME280;48842;51.046;13.796;2023-03-14T07:58:43;98213.81;;;14.43;56.47
62800;BME280;48842;51.046;13.796;2023-03-14T08:01:08;98216.34;;;14.45;56.64
62800;BME280;48842;51.046;13.796;2023-03-14T08:03:34;98215.50;;;14.44;56.57
62800;BME280;48842;51.046;13.796;2023-03-14T08:05:59;98198.84;;;14.44;56.22
62800;BME280;48842;51.046;13.796;2023-03-14T08:08:24;98200.56;;;14.45;56.60
62800;BME280;48842;51.046;13.796;2023-03-14T08:10:49;98199.56;;;14.47;56.39
62800;BME280;48842;51.046;13.796;2023-03-14T08:13:15;98202.13;;;14.49;56.24
62800;BME280;48842;51.046;13.796;2023-03-14T08:15:40;98193.22;;;14.52;56.16
62800;BME280;48842;51.046;13.796;2023-03-14T08:18:05;98200.25;;;14.51;55.64
62800;BME280;48842;51.046;13.796;2023-03-14T08:20:31;98209.03;;;14.52;55.54
62800;BME280;48842;51.046;13.796;2023-03-14T08:22:57;98214.31;;;14.52;55.74
62800;BME280;48842;51.046;13.796;2023-03-14T08:25:23;98219.56;;;14.52;55.89
62800;BME280;48842;51.046;13.796;2023-03-14T08:27:49;98217.78;;;14.52;55.79
62800;BME280;48842;51.046;13.796;2023-03-14T08:30:18;98210.53;;;14.57;55.78
62800;BME280;48842;51.046;13.796;2023-03-14T08:32:43;98211.91;;;14.66;55.30
62800;BME280;48842;51.046;13.796;2023-03-14T08:35:09;98208.81;;;14.75;55.18
62800;BME280;48842;51.046;13.796;2023-03-14T08:37:35;98215.38;;;14.86;54.19
62800;BME280;48842;51.046;13.796;2023-03-14T08:40:02;98200.81;;;14.96;54.01
62800;BME280;48842;51.046;13.796;2023-03-14T08:42:31;98211.03;;;15.02;53.10
62800;BME280;48842;51.046;13.796;2023-03-14T08:44:56;98206.41;;;15.07;52.84
62800;BME280;48842;51.046;13.796;2023-03-14T08:47:22;98207.91;;;15.13;51.58
62800;BME280;48842;51.046;13.796;2023-03-14T08:49:47;98200.84;;;15.13;50.72
62800;BME280;48842;51.046;13.796;2023-03-14T08:52:12;98205.34;;;15.11;50.21
62800;BME280;48842;51.046;13.796;2023-03-14T08:54:37;98197.03;;;15.19;49.80
62800;BME280;48842;51.046;13.796;2023-03-14T08:57:03;98196.66;;;15.27;49.63
62800;BME280;48842;51.046;13.796;2023-03-14T08:59:28;98189.38;;;15.32;49.63
62800;BME280;48842;51.046;13.796;2023-03-14T09:01:53;98200.84;;;15.31;48.56
62800;BME280;48842;51.046;13.796;2023-03-14T09:04:19;98192.69;;;15.18;48.50
62800;BME280;48842;51.046;13.796;2023-03-14T09:06:45;98201.16;;;15.25;49.01
62800;BME280;48842;51.046;13.796;2023-03-14T09:09:10;98199.28;;;15.27;49.05
62800;BME280;48842;51.046;13.796;2023-03-14T09:11:35;98200.69;;;15.34;49.27
62800;BME280;48842;51.046;13.796;2023-03-14T09:14:00;98201.41;;;15.38;48.86
62800;BME280;48842;51.046;13.796;2023-03-14T09:16:26;98194.00;;;15.44;49.08
62800;BME280;48842;51.046;13.796;2023-03-14T09:18:51;98191.84;;;15.52;49.09
62800;BME280;48842;51.046;13.796;2023-03-14T09:21:21;98194.47;;;15.52;48.47
62800;BME280;48842;51.046;13.796;2023-03-14T09:23:46;98190.59;;;15.60;48.78
62800;BME280;48842;51.046;13.796;2023-03-14T09:26:11;98192.38;;;15.59;48.11
62800;BME280;48842;51.046;13.796;2023-03-14T09:28:36;98195.47;;;15.67;49.08
62800;BME280;48842;51.046;13.796;2023-03-14T09:31:09;98197.03;;;15.71;48.55
62800;BME280;48842;51.046;13.796;2023-03-14T09:33:35;98202.22;;;15.73;48.98
62800;BME280;48842;51.046;13.796;2023-03-14T09:36:01;98197.03;;;15.71;49.30
62800;BME280;48842;51.046;13.796;2023-03-14T09:38:27;98205.78;;;15.72;49.24
62800;BME280;48842;51.046;13.796;2023-03-14T09:40:53;98205.09;;;15.68;49.76
62800;BME280;48842;51.046;13.796;2023-03-14T09:43:19;98206.28;;;15.63;49.27
62800;BME280;48842;51.046;13.796;2023-03-14T09:45:48;98207.28;;;15.60;49.70
62800;BME280;48842;51.046;13.796;2023-03-14T09:48:17;98204.72;;;15.59;49.30
62800;BME280;48842;51.046;13.796;2023-03-14T09:50:51;98200.34;;;15.58;49.35
62800;BME280;48842;51.046;13.796;2023-03-14T09:53:20;98206.59;;;15.57;49.21
62800;BME280;48842;51.046;13.796;2023-03-14T09:55:49;98213.28;;;15.46;48.83
62800;BME280;48842;51.046;13.796;2023-03-14T09:58:20;98214.63;;;15.36;48.46
62800;BME280;48842;51.046;13.796;2023-03-14T10:00:46;98212.16;;;15.33;48.55
62800;BME280;48842;51.046;13.796;2023-03-14T10:05:38;98218.38;;;15.32;49.01
62800;BME280;48842;51.046;13.796;2023-03-14T10:08:03;98213.94;;;15.32;48.83
62800;BME280;48842;51.046;13.796;2023-03-14T10:10:31;98203.63;;;15.10;47.94
62800;BME280;48842;51.046;13.796;2023-03-14T10:15:53;98212.63;;;15.24;48.79
62800;BME280;48842;51.046;13.796;2023-03-14T10:18:22;98213.78;;;15.18;48.25
62800;BME280;48842;51.046;13.796;2023-03-14T10:20:51;98224.31;;;15.18;47.95
62800;BME280;48842;51.046;13.796;2023-03-14T10:23:27;98225.47;;;15.12;48.10
62800;BME280;48842;51.046;13.796;2023-03-14T10:26:14;98222.31;;;15.06;47.66
62800;BME280;48842;51.046;13.796;2023-03-14T10:28:47;98225.22;;;14.99;47.88
62800;BME280;48842;51.046;13.796;2023-03-14T10:31:14;98208.25;;;15.05;48.34
62800;BME280;48842;51.046;13.796;2023-03-14T10:33:39;98212.59;;;15.06;48.36
62800;BME280;48842;51.046;13.796;2023-03-14T10:36:15;98205.25;;;15.13;48.02
62800;BME280;48842;51.046;13.796;2023-03-14T10:38:42;98209.31;;;15.20;48.28
62800;BME280;48842;51.046;13.796;2023-03-14T10:41:19;98204.41;;;15.30;48.27
62800;BME280;48842;51.046;13.796;2023-03-14T10:43:53;98214.63;;;15.36;48.20
62800;BME280;48842;51.046;13.796;2023-03-14T10:46:23;98211.78;;;15.41;48.05
62800;BME280;48842;51.046;13.796;2023-03-14T10:48:49;98204.41;;;15.47;48.15
62800;BME280;48842;51.046;13.796;2023-03-14T10:51:19;98203.31;;;15.51;47.74
62800;BME280;48842;51.046;13.796;2023-03-14T10:54:12;98200.59;;;15.53;47.84
62800;BME280;48842;51.046;13.796;2023-03-14T10:56:38;98205.66;;;15.40;46.66
62800;BME280;48842;51.046;13.796;2023-03-14T10:59:07;98205.47;;;15.43;47.84
62800;BME280;48842;51.046;13.796;2023-03-14T11:01:37;98202.84;;;15.43;47.39
62800;BME280;48842;51.046;13.796;2023-03-14T11:04:14;98208.13;;;15.43;47.45
62800;BME280;48842;51.046;13.796;2023-03-14T11:09:36;98207.03;;;15.47;47.12
62800;BME280;48842;51.046;13.796;2023-03-14T11:15:02;98215.59;;;15.52;47.33
62800;BME280;48842;51.046;13.796;2023-03-14T11:17:52;98212.78;;;15.56;47.10
62800;BME280;48842;51.046;13.796;2023-03-14T11:20:56;98210.69;;;15.62;47.44
62800;BME280;48842;51.046;13.796;2023-03-14T11:23:32;98200.66;;;15.69;46.94
62800;BME280;48842;51.046;13.796;2023-03-14T11:28:49;98199.28;;;15.79;47.03
62800;BME280;48842;51.046;13.796;2023-03-14T11:31:28;98193.09;;;15.80;47.02
62800;BME280;48842;51.046;13.796;2023-03-14T11:34:55;98202.47;;;15.86;47.20
62800;BME280;48842;51.046;13.796;2023-03-14T11:37:05;98192.16;;;15.97;47.08
62800;BME280;48842;51.046;13.796;2023-03-14T11:39:40;98185.81;;;16.17;47.10
62800;BME280;48842;51.046;13.796;2023-03-14T11:42:11;98190.28;;;16.33;45.45
62800;BME280;48842;51.046;13.796;2023-03-14T11:44:38;98185.00;;;16.33;44.79
62800;BME280;48842;51.046;13.796;2023-03-14T11:47:21;98177.66;;;16.38;45.00
62800;BME280;48842;51.046;13.796;2023-03-14T11:50:02;98177.84;;;16.35;44.92
62800;BME280;48842;51.046;13.796;2023-03-14T11:52:40;98167.78;;;16.42;45.37
62800;BME280;48842;51.046;13.796;2023-03-14T11:55:13;98172.13;;;16.43;44.78
62800;BME280;48842;51.046;13.796;2023-03-14T11:57:42;98161.16;;;16.34;44.88
62800;BME280;48842;51.046;13.796;2023-03-14T12:00:21;98165.31;;;16.22;45.31
62800;BME280;48842;51.046;13.796;2023-03-14T12:02:55;98163.84;;;16.17;44.93
62800;BME280;48842;51.046;13.796;2023-03-14T12:05:31;98167.59;;;16.13;45.24
62800;BME280;48842;51.046;13.796;2023-03-14T12:08:14;98164.34;;;16.08;45.27
62800;BME280;48842;51.046;13.796;2023-03-14T12:10:48;98153.72;;;16.09;45.14
62800;BME280;48842;51.046;13.796;2023-03-14T12:13:15;98153.53;;;16.12;45.19
62800;BME280;48842;51.046;13.796;2023-03-14T12:15:56;98139.00;;;16.21;44.85
62800;BME280;48842;51.046;13.796;2023-03-14T12:18:32;98147.84;;;16.36;44.83
62800;BME280;48842;51.046;13.796;2023-03-14T12:21:03;98144.19;;;16.54;44.59
62800;BME280;48842;51.046;13.796;2023-03-14T12:23:44;98134.25;;;16.74;44.29
62800;BME280;48842;51.046;13.796;2023-03-14T12:26:19;98135.00;;;16.92;43.85
62800;BME280;48842;51.046;13.796;2023-03-14T12:39:29;98139.44;;;17.52;42.47
62800;BME280;48842;51.046;13.796;2023-03-14T12:42:12;98134.75;;;17.27;42.18
62800;BME280;48842;51.046;13.796;2023-03-14T12:44:49;98126.84;;;17.11;43.17
62800;BME280;48842;51.046;13.796;2023-03-14T12:49:44;98125.97;;;16.96;44.23
62800;BME280;48842;51.046;13.796;2023-03-14T12:52:20;98124.44;;;16.92;44.33
62800;BME280;48842;51.046;13.796;2023-03-14T12:55:14;98123.81;;;17.03;44.44
62800;BME280;48842;51.046;13.796;2023-03-14T12:58:08;98109.41;;;17.23;43.67
62800;BME280;48842;51.046;13.796;2023-03-14T13:00:40;98104.81;;;17.41;43.38
62800;BME280;48842;51.046;13.796;2023-03-14T13:05:57;98109.53;;;17.50;42.60
62800;BME280;48842;51.046;13.796;2023-03-14T13:08:43;98108.03;;;17.60;42.24
62800;BME280;48842;51.046;13.796;2023-03-14T13:11:15;98089.69;;;17.57;42.25
62800;BME280;48842;51.046;13.796;2023-03-14T13:13:45;98095.72;;;17.59;41.25
62800;BME280;48842;51.046;13.796;2023-03-14T13:16:15;98095.19;;;17.54;41.22
62800;BME280;48842;51.046;13.796;2023-03-14T13:18:42;98088.09;;;17.69;41.57
62800;BME280;48842;51.046;13.796;2023-03-14T13:21:15;98098.38;;;17.74;40.47
62800;BME280;48842;51.046;13.796;2023-03-14T13:23:57;98099.16;;;18.05;40.34
62800;BME280;48842;51.046;13.796;2023-03-14T13:26:25;98108.34;;;18.41;39.26
62800;BME280;48842;51.046;13.796;2023-03-14T13:28:56;98101.41;;;18.25;38.72